sensor_id;sensor_type;location;lat;lon;timestamp;pressure;altitude;pressure_sealevel;temperature;humidity
72961;BME280;61141;46.204;19.774;2023-10-09T00:01:12;101465.31;;;8.98;82.95
72961;BME280;61141;46.204;19.774;2023-10-09T00:04:20;101452.38;;;8.86;82.41
72961;BME280;61141;46.204;19.774;2023-10-09T00:07:23;101442.22;;;8.86;82.98
72961;BME280;61141;46.204;19.774;2023-10-09T00:10:33;101454.44;;;8.89;83.57
72961;BME280;61141;46.204;19.774;2023-10-09T00:13:41;101466.97;;;8.90;81.86
72961;BME280;61141;46.204;19.774;2023-10-09T00:17:00;101476.44;;;8.93;83.35
72961;BME280;61141;46.204;19.774;2023-10-09T00:20:11;101461.16;;;8.62;83.22
72961;BME280;61141;46.204;19.774;2023-10-09T00:23:22;101464.72;;;8.54;84.30
72961;BME280;61141;46.204;19.774;2023-10-09T00:26:28;101471.09;;;8.29;85.03
72961;BME280;61141;46.204;19.774;2023-10-09T00:29:46;101468.34;;;8.29;85.53
72961;BME280;61141;46.204;19.774;2023-10-09T00:32:48;101461.56;;;8.44;85.83
72961;BME280;61141;46.204;19.774;2023-10-09T00:36:07;101459.09;;;8.59;86.19
72961;BME280;61141;46.204;19.774;2023-10-09T00:39:13;101452.31;;;8.65;85.99
72961;BME280;61141;46.204;19.774;2023-10-09T00:42:24;101452.47;;;8.69;86.14
72961;BME280;61141;46.204;19.774;2023-10-09T00:45:40;101456.34;;;8.59;84.97
72961;BME280;61141;46.204;19.774;2023-10-09T00:48:46;101445.78;;;8.58;85.38
72961;BME280;61141;46.204;19.774;2023-10-09T00:51:51;101443.84;;;8.58;85.83
72961;BME280;61141;46.204;19.774;2023-10-09T00:55:00;101441.97;;;8.50;86.91
72961;BME280;61141;46.204;19.774;2023-10-09T00:58:25;101435.88;;;8.45;85.20
72961;BME280;61141;46.204;19.774;2023-10-09T01:01:37;101431.19;;;8.45;84.57
72961;BME280;61141;46.204;19.774;2023-10-09T01:04:42;101437.66;;;8.70;81.91
72961;BME280;61141;46.204;19.774;2023-10-09T01:07:48;101448.09;;;8.76;76.33
72961;BME280;61141;46.204;19.774;2023-10-09T01:10:51;101450.81;;;9.06;73.66
72961;BME280;61141;46.204;19.774;2023-10-09T01:13:59;101444.75;;;9.21;72.60
72961;BME280;61141;46.204;19.774;2023-10-09T01:17:28;101448.09;;;9.47;71.31
72961;BME280;61141;46.204;19.774;2023-10-09T01:20:41;101452.03;;;9.58;69.97
72961;BME280;61141;46.204;19.774;2023-10-09T01:23:45;101442.19;;;9.57;73.55
72961;BME280;61141;46.204;19.774;2023-10-09T01:27:13;101442.34;;;9.40;73.61
72961;BME280;61141;46.204;19.774;2023-10-09T01:30:18;101457.94;;;9.39;74.21
72961;BME280;61141;46.204;19.774;2023-10-09T01:33:23;101446.69;;;9.41;75.64
72961;BME280;61141;46.204;19.774;2023-10-09T01:36:30;101448.00;;;9.35;77.21
72961;BME280;61141;46.204;19.774;2023-10-09T01:39:35;101452.69;;;9.34;76.13
72961;BME280;61141;46.204;19.774;2023-10-09T01:42:43;101439.22;;;9.29;77.80
72961;BME280;61141;46.204;19.774;2023-10-09T01:45:49;101442.22;;;9.16;77.96
72961;BME280;61141;46.204;19.774;2023-10-09T01:48:54;101446.94;;;9.07;76.93
72961;BME280;61141;46.204;19.774;2023-10-09T01:51:57;101442.91;;;8.83;76.38
72961;BME280;61141;46.204;19.774;2023-10-09T01:55:12;101444.47;;;8.64;76.96
72961;BME280;61141;46.204;19.774;2023-10-09T01:58:34;101446.69;;;8.62;77.52
72961;BME280;61141;46.204;19.774;2023-10-09T02:01:36;101447.88;;;8.52;77.94
72961;BME280;61141;46.204;19.774;2023-10-09T02:04:58;101443.44;;;8.39;79.48
72961;BME280;61141;46.204;19.774;2023-10-09T02:08:27;101450.06;;;8.21;79.50
72961;BME280;61141;46.204;19.774;2023-10-09T02:11:38;101450.28;;;7.99;78.82
72961;BME280;61141;46.204;19.774;2023-10-09T02:14:45;101448.53;;;7.86;80.28
72961;BME280;61141;46.204;19.774;2023-10-09T02:17:48;101451.09;;;7.91;82.82
72961;BME280;61141;46.204;19.774;2023-10-09T02:24:09;101450.09;;;8.04;81.72
72961;BME280;61141;46.204;19.774;2023-10-09T02:27:12;101437.16;;;7.84;80.48
72961;BME280;61141;46.204;19.774;2023-10-09T02:30:15;101446.47;;;7.83;81.34
72961;BME280;61141;46.204;19.774;2023-10-09T02:33:20;101452.09;;;7.78;82.97
72961;BME280;61141;46.204;19.774;2023-10-09T02:36:30;101458.19;;;7.75;84.73
72961;BME280;61141;46.204;19.774;2023-10-09T02:39:33;101448.25;;;7.79;84.77
72961;BME280;61141;46.204;19.774;2023-10-09T02:42:46;101437.78;;;7.89;82.86
72961;BME280;61141;46.204;19.774;2023-10-09T02:45:48;101435.53;;;7.91;83.04
72961;BME280;61141;46.204;19.774;2023-10-09T02:48:55;101456.06;;;7.89;82.99
72961;BME280;61141;46.204;19.774;2023-10-09T02:51:58;101455.44;;;7.83;83.17
72961;BME280;61141;46.204;19.774;2023-10-09T02:55:01;101452.09;;;7.78;82.90
72961;BME280;61141;46.204;19.774;2023-10-09T02:58:15;101443.75;;;7.48;82.79
72961;BME280;61141;46.204;19.774;2023-10-09T03:01:23;101441.34;;;7.38;83.84
72961;BME280;61141;46.204;19.774;2023-10-09T03:04:26;101455.62;;;7.52;85.06
72961;BME280;61141;46.204;19.774;2023-10-09T03:07:33;101450.97;;;7.44;85.16
72961;BME280;61141;46.204;19.774;2023-10-09T03:10:37;101460.91;;;7.40;84.62
72961;BME280;61141;46.204;19.774;2023-10-09T03:13:43;101473.44;;;7.41;85.31
72961;BME280;61141;46.204;19.774;2023-10-09T03:16:47;101466.84;;;7.34;85.44
72961;BME280;61141;46.204;19.774;2023-10-09T03:19:53;101453.53;;;7.41;85.85
72961;BME280;61141;46.204;19.774;2023-10-09T03:22:57;101445.06;;;7.34;85.26
72961;BME280;61141;46.204;19.774;2023-10-09T03:26:00;101410.72;;;7.16;85.50
72961;BME280;61141;46.204;19.774;2023-10-09T03:29:23;101415.06;;;7.34;84.57
72961;BME280;61141;46.204;19.774;2023-10-09T03:32:25;101416.31;;;7.02;83.81
72961;BME280;61141;46.204;19.774;2023-10-09T03:35:28;101408.62;;;6.87;83.43
72961;BME280;61141;46.204;19.774;2023-10-09T03:38:34;101400.50;;;7.04;84.04
72961;BME280;61141;46.204;19.774;2023-10-09T03:41:37;101392.28;;;7.12;84.37
72961;BME280;61141;46.204;19.774;2023-10-09T03:44:47;101379.47;;;7.13;84.77
72961;BME280;61141;46.204;19.774;2023-10-09T03:47:57;101411.53;;;7.16;85.87
72961;BME280;61141;46.204;19.774;2023-10-09T03:51:18;101397.44;;;7.14;84.77
72961;BME280;61141;46.204;19.774;2023-10-09T03:54:24;101375.97;;;7.04;85.75
72961;BME280;61141;46.204;19.774;2023-10-09T03:57:27;101386.22;;;7.24;85.33
72961;BME280;61141;46.204;19.774;2023-10-09T04:00:31;101379.81;;;7.37;85.31
72961;BME280;61141;46.204;19.774;2023-10-09T04:03:44;101375.94;;;7.38;85.04
72961;BME280;61141;46.204;19.774;2023-10-09T04:06:47;101375.31;;;7.41;85.85
72961;BME280;61141;46.204;19.774;2023-10-09T04:09:50;101379.13;;;7.49;85.14
72961;BME280;61141;46.204;19.774;2023-10-09T04:13:13;101365.19;;;7.50;84.65
72961;BME280;61141;46.204;19.774;2023-10-09T04:16:21;101353.94;;;7.60;85.48
72961;BME280;61141;46.204;19.774;2023-10-09T04:19:32;101362.47;;;7.42;85.31
72961;BME280;61141;46.204;19.774;2023-10-09T04:22:51;101358.78;;;7.38;86.12
72961;BME280;61141;46.204;19.774;2023-10-09T04:25:54;101360.75;;;7.29;86.07
72961;BME280;61141;46.204;19.774;2023-10-09T04:28:59;101361.38;;;7.08;85.63
72961;BME280;61141;46.204;19.774;2023-10-09T04:32:02;101358.31;;;7.27;86.44
72961;BME280;61141;46.204;19.774;2023-10-09T04:35:05;101379.31;;;7.35;85.56
72961;BME280;61141;46.204;19.774;2023-10-09T04:38:40;101373.38;;;7.33;85.45
72961;BME280;61141;46.204;19.774;2023-10-09T04:41:56;101375.63;;;7.40;85.72
72961;BME280;61141;46.204;19.774;2023-10-09T04:45:22;101387.00;;;7.59;86.36
72961;BME280;61141;46.204;19.774;2023-10-09T04:48:45;101370.75;;;7.71;85.24
72961;BME280;61141;46.204;19.774;2023-10-09T04:51:48;101344.25;;;7.80;83.96
72961;BME280;61141;46.204;19.774;2023-10-09T04:55:07;101355.16;;;7.89;83.88
72961;BME280;61141;46.204;19.774;2023-10-09T04:58:10;101358.97;;;7.96;83.43
72961;BME280;61141;46.204;19.774;2023-10-09T05:01:26;101366.84;;;7.98;83.59
72961;BME280;61141;46.204;19.774;2023-10-09T05:04:39;101374.62;;;8.16;84.95
72961;BME280;61141;46.204;19.774;2023-10-09T05:07:45;101345.09;;;8.10;82.98
72961;BME280;61141;46.204;19.774;2023-10-09T05:11:01;101356.94;;;8.31;82.79
72961;BME280;61141;46.204;19.774;2023-10-09T05:14:04;101346.75;;;8.40;82.62
72961;BME280;61141;46.204;19.774;2023-10-09T05:17:16;101358.31;;;8.37;83.57
72961;BME280;61141;46.204;19.774;2023-10-09T05:20:19;101353.19;;;8.65;85.17
72961;BME280;61141;46.204;19.774;2023-10-09T05:23:28;101363.44;;;8.68;82.42
72961;BME280;61141;46.204;19.774;2023-10-09T05:26:31;101373.72;;;8.71;82.10
72961;BME280;61141;46.204;19.774;2023-10-09T05:29:53;101364.19;;;8.77;82.25
72961;BME280;61141;46.204;19.774;2023-10-09T05:33:03;101344.47;;;8.92;81.87
72961;BME280;61141;46.204;19.774;2023-10-09T05:36:24;101335.00;;;9.10;80.38
72961;BME280;61141;46.204;19.774;2023-10-09T05:39:27;101350.53;;;8.98;82.04
72961;BME280;61141;46.204;19.774;2023-10-09T05:42:45;101354.88;;;8.99;80.52
72961;BME280;61141;46.204;19.774;2023-10-09T05:45:48;101338.56;;;9.11;78.81
72961;BME280;61141;46.204;19.774;2023-10-09T05:49:10;101345.75;;;9.15;78.04
72961;BME280;61141;46.204;19.774;2023-10-09T05:52:23;101351.28;;;9.07;79.66
72961;BME280;61141;46.204;19.774;2023-10-09T05:55:40;101341.34;;;8.81;79.49
72961;BME280;61141;46.204;19.774;2023-10-09T05:58:58;101329.63;;;9.02;77.17
72961;BME280;61141;46.204;19.774;2023-10-09T06:02:20;101334.44;;;9.37;78.35
72961;BME280;61141;46.204;19.774;2023-10-09T06:05:57;101332.50;;;9.38;78.33
72961;BME280;61141;46.204;19.774;2023-10-09T06:09:04;101326.38;;;9.41;78.26
72961;BME280;61141;46.204;19.774;2023-10-09T06:12:31;101309.81;;;9.37;76.68
72961;BME280;61141;46.204;19.774;2023-10-09T06:15:38;101329.50;;;9.64;76.41
72961;BME280;61141;46.204;19.774;2023-10-09T06:18:53;101337.16;;;9.70;75.79
72961;BME280;61141;46.204;19.774;2023-10-09T06:22:15;101333.28;;;9.71;75.06
72961;BME280;61141;46.204;19.774;2023-10-09T06:25:53;101332.72;;;9.78;74.12
72961;BME280;61141;46.204;19.774;2023-10-09T06:29:08;101329.06;;;9.74;75.01
72961;BME280;61141;46.204;19.774;2023-10-09T06:32:18;101327.59;;;9.76;72.03
72961;BME280;61141;46.204;19.774;2023-10-09T06:35:21;101305.59;;;9.97;72.98
72961;BME280;61141;46.204;19.774;2023-10-09T06:38:25;101320.91;;;10.22;72.19
72961;BME280;61141;46.204;19.774;2023-10-09T06:41:47;101326.06;;;10.24;71.97
72961;BME280;61141;46.204;19.774;2023-10-09T06:45:11;101339.06;;;10.39;70.66
72961;BME280;61141;46.204;19.774;2023-10-09T06:48:19;101332.78;;;10.50;69.02
72961;BME280;61141;46.204;19.774;2023-10-09T06:51:37;101337.56;;;10.66;68.71
72961;BME280;61141;46.204;19.774;2023-10-09T06:54:46;101344.16;;;10.77;68.85
72961;BME280;61141;46.204;19.774;2023-10-09T06:57:53;101338.06;;;10.83;69.71
72961;BME280;61141;46.204;19.774;2023-10-09T07:00:56;101341.63;;;10.72;68.31
72961;BME280;61141;46.204;19.774;2023-10-09T07:04:18;101326.66;;;10.81;66.59
72961;BME280;61141;46.204;19.774;2023-10-09T07:07:23;101326.41;;;10.86;65.87
72961;BME280;61141;46.204;19.774;2023-10-09T07:10:27;101326.16;;;10.91;65.39
72961;BME280;61141;46.204;19.774;2023-10-09T07:13:35;101312.88;;;11.05;65.49
72961;BME280;61141;46.204;19.774;2023-10-09T07:16:40;101315.97;;;11.32;62.38
72961;BME280;61141;46.204;19.774;2023-10-09T07:20:00;101311.34;;;11.63;61.31
72961;BME280;61141;46.204;19.774;2023-10-09T07:23:38;101289.69;;;11.74;57.75
72961;BME280;61141;46.204;19.774;2023-10-09T07:26:50;101291.72;;;11.93;53.35
72961;BME280;61141;46.204;19.774;2023-10-09T07:29:56;101285.78;;;12.06;51.02
72961;BME280;61141;46.204;19.774;2023-10-09T07:33:06;101275.94;;;12.05;50.30
72961;BME280;61141;46.204;19.774;2023-10-09T07:36:16;101276.84;;;12.09;50.49
72961;BME280;61141;46.204;19.774;2023-10-09T07:39:19;101263.87;;;12.25;50.85
72961;BME280;61141;46.204;19.774;2023-10-09T07:42:26;101263.34;;;12.55;48.71
72961;BME280;61141;46.204;19.774;2023-10-09T07:45:36;101260.66;;;12.39;47.52
72961;BME280;61141;46.204;19.774;2023-10-09T07:48:39;101267.09;;;12.47;48.64
72961;BME280;61141;46.204;19.774;2023-10-09T07:51:51;101252.91;;;12.45;48.04
72961;BME280;61141;46.204;19.774;2023-10-09T07:54:55;101265.94;;;12.48;48.37
72961;BME280;61141;46.204;19.774;2023-10-09T07:58:05;101264.56;;;12.57;48.21
72961;BME280;61141;46.204;19.774;2023-10-09T08:01:14;101257.03;;;12.54;47.57
72961;BME280;61141;46.204;19.774;2023-10-09T08:04:38;101266.59;;;12.79;48.28
72961;BME280;61141;46.204;19.774;2023-10-09T08:07:42;101276.97;;;12.86;47.16
72961;BME280;61141;46.204;19.774;2023-10-09T08:11:09;101266.25;;;12.81;46.04
72961;BME280;61141;46.204;19.774;2023-10-09T08:14:31;101264.34;;;13.04;45.83
72961;BME280;61141;46.204;19.774;2023-10-09T08:17:36;101251.56;;;13.31;47.29
72961;BME280;61141;46.204;19.774;2023-10-09T08:20:40;101254.13;;;13.43;45.66
72961;BME280;61141;46.204;19.774;2023-10-09T08:24:03;101243.03;;;13.39;45.15
72961;BME280;61141;46.204;19.774;2023-10-09T08:27:39;101228.50;;;13.39;44.84
72961;BME280;61141;46.204;19.774;2023-10-09T08:30:50;101216.19;;;13.33;45.19
72961;BME280;61141;46.204;19.774;2023-10-09T08:33:56;101211.00;;;13.50;44.92
72961;BME280;61141;46.204;19.774;2023-10-09T08:37:03;101212.81;;;13.66;45.08
72961;BME280;61141;46.204;19.774;2023-10-09T08:40:08;101209.87;;;13.78;45.09
72961;BME280;61141;46.204;19.774;2023-10-09T08:43:19;101190.72;;;13.85;44.98
72961;BME280;61141;46.204;19.774;2023-10-09T08:46:26;101202.03;;;14.06;43.10
72961;BME280;61141;46.204;19.774;2023-10-09T08:49:32;101201.75;;;14.14;44.91
72961;BME280;61141;46.204;19.774;2023-10-09T08:52:38;101193.78;;;14.32;43.98
72961;BME280;61141;46.204;19.774;2023-10-09T08:55:43;101193.25;;;14.53;43.33
72961;BME280;61141;46.204;19.774;2023-10-09T08:58:46;101181.72;;;14.44;41.34
72961;BME280;61141;46.204;19.774;2023-10-09T09:01:50;101167.81;;;14.66;41.13
72961;BME280;61141;46.204;19.774;2023-10-09T09:04:54;101156.06;;;15.10;41.37
72961;BME280;61141;46.204;19.774;2023-10-09T09:07:57;101140.41;;;15.21;40.01
72961;BME280;61141;46.204;19.774;2023-10-09T09:11:03;101138.84;;;15.23;41.73
72961;BME280;61141;46.204;19.774;2023-10-09T09:14:15;101131.34;;;15.24;41.45
72961;BME280;61141;46.204;19.774;2023-10-09T09:17:32;101117.88;;;15.15;40.85
72961;BME280;61141;46.204;19.774;2023-10-09T09:20:36;101116.50;;;14.95;39.24
72961;BME280;61141;46.204;19.774;2023-10-09T09:23:53;101105.19;;;15.11;41.40
72961;BME280;61141;46.204;19.774;2023-10-09T09:27:01;101106.72;;;15.01;40.92
72961;BME280;61141;46.204;19.774;2023-10-09T09:33:27;101115.25;;;15.29;41.26
72961;BME280;61141;46.204;19.774;2023-10-09T09:36:35;101117.34;;;15.47;40.90
72961;BME280;61141;46.204;19.774;2023-10-09T09:39:41;101088.31;;;15.67;40.53
72961;BME280;61141;46.204;19.774;2023-10-09T09:42:58;101095.19;;;15.98;39.52
72961;BME280;61141;46.204;19.774;2023-10-09T09:46:10;101092.50;;;16.12;38.85
72961;BME280;61141;46.204;19.774;2023-10-09T09:49:14;101072.75;;;16.13;38.88
72961;BME280;61141;46.204;19.774;2023-10-09T09:52:22;101077.41;;;15.95;38.39
72961;BME280;61141;46.204;19.774;2023-10-09T09:55:34;101068.84;;;16.18;38.14
72961;BME280;61141;46.204;19.774;2023-10-09T09:58:38;101060.59;;;16.39;37.62
72961;BME280;61141;46.204;19.774;2023-10-09T10:01:46;101053.91;;;16.51;38.04
72961;BME280;61141;46.204;19.774;2023-10-09T10:05:04;101048.84;;;16.67;38.54
72961;BME280;61141;46.204;19.774;2023-10-09T10:08:09;101041.72;;;16.80;38.52
72961;BME280;61141;46.204;19.774;2023-10-09T10:11:51;101034.94;;;16.49;38.04
72961;BME280;61141;46.204;19.774;2023-10-09T10:14:58;101029.47;;;16.67;37.15
72961;BME280;61141;46.204;19.774;2023-10-09T10:18:07;101017.59;;;16.66;37.85
72961;BME280;61141;46.204;19.774;2023-10-09T10:21:11;101007.28;;;16.53;37.45
72961;BME280;61141;46.204;19.774;2023-10-09T10:27:33;100999.44;;;16.72;36.75
72961;BME280;61141;46.204;19.774;2023-10-09T10:30:47;100983.63;;;16.69;36.53
72961;BME280;61141;46.204;19.774;2023-10-09T10:36:57;100966.97;;;17.15;37.19
72961;BME280;61141;46.204;19.774;2023-10-09T10:40:05;100956.66;;;17.26;37.54
72961;BME280;61141;46.204;19.774;2023-10-09T10:43:16;100951.56;;;17.18;36.81
72961;BME280;61141;46.204;19.774;2023-10-09T10:46:40;100947.59;;;17.19;36.21
72961;BME280;61141;46.204;19.774;2023-10-09T10:49:48;100937.31;;;17.23;35.64
72961;BME280;61141;46.204;19.774;2023-10-09T10:53:12;100928.13;;;17.40;36.09
72961;BME280;61141;46.204;19.774;2023-10-09T10:56:23;100934.47;;;17.40;36.28
72961;BME280;61141;46.204;19.774;2023-10-09T10:59:40;100934.84;;;17.46;35.59
72961;BME280;61141;46.204;19.774;2023-10-09T11:02:44;100924.94;;;17.59;34.79
72961;BME280;61141;46.204;19.774;2023-10-09T11:05:51;100935.13;;;17.76;35.68
72961;BME280;61141;46.204;19.774;2023-10-09T11:08:55;100936.72;;;17.77;33.89
72961;BME280;61141;46.204;19.774;2023-10-09T11:12:04;100931.09;;;17.95;35.27
72961;BME280;61141;46.204;19.774;2023-10-09T11:15:36;100913.69;;;17.87;33.53
72961;BME280;61141;46.204;19.774;2023-10-09T11:18:49;100918.41;;;17.97;34.54
72961;BME280;61141;46.204;19.774;2023-10-09T11:21:52;100897.75;;;18.05;34.87
72961;BME280;61141;46.204;19.774;2023-10-09T11:25:21;100895.44;;;17.97;34.96
72961;BME280;61141;46.204;19.774;2023-10-09T11:28:24;100884.19;;;18.14;35.26
72961;BME280;61141;46.204;19.774;2023-10-09T11:32:04;100882.66;;;18.10;34.41
72961;BME280;61141;46.204;19.774;2023-10-09T11:35:13;100879.41;;;18.22;35.43
72961;BME280;61141;46.204;19.774;2023-10-09T11:38:21;100870.69;;;18.20;34.86
72961;BME280;61141;46.204;19.774;2023-10-09T11:41:26;100859.72;;;18.06;34.84
72961;BME280;61141;46.204;19.774;2023-10-09T11:44:36;100860.13;;;18.01;35.11
72961;BME280;61141;46.204;19.774;2023-10-09T11:47:41;100852.56;;;18.08;35.31
72961;BME280;61141;46.204;19.774;2023-10-09T11:50:57;100846.97;;;18.12;35.79
72961;BME280;61141;46.204;19.774;2023-10-09T11:54:32;100843.03;;;18.09;35.65
72961;BME280;61141;46.204;19.774;2023-10-09T11:57:35;100849.28;;;18.24;35.78
72961;BME280;61141;46.204;19.774;2023-10-09T12:00:39;100843.72;;;18.24;36.13
72961;BME280;61141;46.204;19.774;2023-10-09T12:03:49;100823.50;;;18.24;36.07
72961;BME280;61141;46.204;19.774;2023-10-09T12:06:53;100822.12;;;18.49;35.92
72961;BME280;61141;46.204;19.774;2023-10-09T12:10:09;100810.16;;;18.56;36.48
72961;BME280;61141;46.204;19.774;2023-10-09T12:13:12;100804.19;;;18.61;36.48
72961;BME280;61141;46.204;19.774;2023-10-09T12:16:18;100805.72;;;18.65;36.70
72961;BME280;61141;46.204;19.774;2023-10-09T12:19:21;100794.38;;;18.46;36.93
72961;BME280;61141;46.204;19.774;2023-10-09T12:22:26;100784.09;;;18.43;36.67
72961;BME280;61141;46.204;19.774;2023-10-09T12:25:30;100782.97;;;18.37;36.84
72961;BME280;61141;46.204;19.774;2023-10-09T12:28:34;100778.69;;;18.29;36.62
72961;BME280;61141;46.204;19.774;2023-10-09T12:31:37;100773.34;;;18.52;36.97
72961;BME280;61141;46.204;19.774;2023-10-09T12:34:40;100770.41;;;18.66;38.06
72961;BME280;61141;46.204;19.774;2023-10-09T12:37:44;100763.28;;;18.65;38.68
72961;BME280;61141;46.204;19.774;2023-10-09T12:40:48;100767.16;;;18.74;38.12
72961;BME280;61141;46.204;19.774;2023-10-09T12:43:55;100756.09;;;18.71;38.36
72961;BME280;61141;46.204;19.774;2023-10-09T12:47:01;100748.87;;;18.77;38.27
72961;BME280;61141;46.204;19.774;2023-10-09T12:50:07;100754.34;;;18.84;39.05
72961;BME280;61141;46.204;19.774;2023-10-09T12:53:16;100744.19;;;18.70;38.90
72961;BME280;61141;46.204;19.774;2023-10-09T12:56:20;100741.09;;;18.65;39.32
72961;BME280;61141;46.204;19.774;2023-10-09T12:59:25;100738.75;;;18.60;39.87
72961;BME280;61141;46.204;19.774;2023-10-09T13:02:27;100739.28;;;18.48;40.84
72961;BME280;61141;46.204;19.774;2023-10-09T13:05:34;100726.28;;;18.41;41.08
72961;BME280;61141;46.204;19.774;2023-10-09T13:08:37;100733.78;;;18.44;41.48
72961;BME280;61141;46.204;19.774;2023-10-09T13:11:43;100719.38;;;18.19;41.19
72961;BME280;61141;46.204;19.774;2023-10-09T13:14:50;100724.81;;;18.30;41.59
72961;BME280;61141;46.204;19.774;2023-10-09T13:17:54;100735.13;;;18.26;41.85
72961;BME280;61141;46.204;19.774;2023-10-09T13:20:56;100723.28;;;18.25;42.80
72961;BME280;61141;46.204;19.774;2023-10-09T13:24:00;100717.66;;;18.29;42.58
72961;BME280;61141;46.204;19.774;2023-10-09T13:27:04;100714.87;;;18.32;43.68
72961;BME280;61141;46.204;19.774;2023-10-09T13:30:08;100700.03;;;18.46;44.17
72961;BME280;61141;46.204;19.774;2023-10-09T13:33:12;100703.44;;;18.64;44.54
72961;BME280;61141;46.204;19.774;2023-10-09T13:36:21;100703.72;;;18.73;42.33
72961;BME280;61141;46.204;19.774;2023-10-09T13:39:30;100702.09;;;18.75;41.67
72961;BME280;61141;46.204;19.774;2023-10-09T13:42:40;100690.75;;;18.93;43.13
72961;BME280;61141;46.204;19.774;2023-10-09T13:45:44;100693.22;;;18.88;42.31
72961;BME280;61141;46.204;19.774;2023-10-09T13:48:53;100685.31;;;18.86;41.90
72961;BME280;61141;46.204;19.774;2023-10-09T13:51:57;100682.09;;;18.57;43.48
72961;BME280;61141;46.204;19.774;2023-10-09T13:55:00;100684.94;;;18.50;43.74
72961;BME280;61141;46.204;19.774;2023-10-09T13:58:17;100676.12;;;18.59;43.80
72961;BME280;61141;46.204;19.774;2023-10-09T14:01:23;100676.53;;;18.61;43.93
72961;BME280;61141;46.204;19.774;2023-10-09T14:04:35;100679.66;;;18.63;45.65
72961;BME280;61141;46.204;19.774;2023-10-09T14:07:38;100653.06;;;18.65;44.36
72961;BME280;61141;46.204;19.774;2023-10-09T14:10:43;100649.12;;;18.63;45.53
72961;BME280;61141;46.204;19.774;2023-10-09T14:13:52;100652.31;;;18.61;44.50
72961;BME280;61141;46.204;19.774;2023-10-09T14:17:21;100656.81;;;18.52;46.29
72961;BME280;61141;46.204;19.774;2023-10-09T14:20:28;100647.81;;;18.41;46.27
72961;BME280;61141;46.204;19.774;2023-10-09T14:23:34;100635.28;;;18.26;46.80
72961;BME280;61141;46.204;19.774;2023-10-09T14:26:37;100659.97;;;18.16;48.90
72961;BME280;61141;46.204;19.774;2023-10-09T14:29:40;100653.69;;;18.09;48.96
72961;BME280;61141;46.204;19.774;2023-10-09T14:32:45;100640.37;;;17.97;49.65
72961;BME280;61141;46.204;19.774;2023-10-09T14:35:54;100644.44;;;17.89;50.45
72961;BME280;61141;46.204;19.774;2023-10-09T14:38:57;100643.75;;;17.78;51.54
72961;BME280;61141;46.204;19.774;2023-10-09T14:42:00;100639.03;;;17.71;52.51
72961;BME280;61141;46.204;19.774;2023-10-09T14:45:12;100641.50;;;17.62;54.08
72961;BME280;61141;46.204;19.774;2023-10-09T14:48:21;100651.09;;;17.50;54.52
72961;BME280;61141;46.204;19.774;2023-10-09T14:51:31;100647.22;;;17.37;54.58
72961;BME280;61141;46.204;19.774;2023-10-09T14:54:37;100640.94;;;17.33;55.89
72961;BME280;61141;46.204;19.774;2023-10-09T14:57:40;100641.03;;;17.19;58.24
72961;BME280;61141;46.204;19.774;2023-10-09T15:00:45;100650.94;;;17.17;58.20
72961;BME280;61141;46.204;19.774;2023-10-09T15:03:50;100647.84;;;17.08;59.23
72961;BME280;61141;46.204;19.774;2023-10-09T15:06:56;100633.25;;;17.00;58.77
72961;BME280;61141;46.204;19.774;2023-10-09T15:09:59;100634.44;;;17.02;58.66
72961;BME280;61141;46.204;19.774;2023-10-09T15:13:06;100630.88;;;16.98;58.52
72961;BME280;61141;46.204;19.774;2023-10-09T15:16:09;100647.97;;;16.86;61.59
72961;BME280;61141;46.204;19.774;2023-10-09T15:19:14;100637.28;;;16.85;60.04
72961;BME280;61141;46.204;19.774;2023-10-09T15:22:18;100643.25;;;16.83;60.13
72961;BME280;61141;46.204;19.774;2023-10-09T15:25:24;100629.44;;;16.80;57.49
72961;BME280;61141;46.204;19.774;2023-10-09T15:28:26;100635.75;;;16.80;60.40
72961;BME280;61141;46.204;19.774;2023-10-09T15:31:38;100631.44;;;16.72;61.05
72961;BME280;61141;46.204;19.774;2023-10-09T15:34:42;100633.44;;;16.72;60.12
72961;BME280;61141;46.204;19.774;2023-10-09T15:37:46;100643.34;;;16.66;61.22
72961;BME280;61141;46.204;19.774;2023-10-09T15:40:49;100657.19;;;16.62;62.08
72961;BME280;61141;46.204;19.774;2023-10-09T15:43:52;100652.06;;;16.57;62.68
72961;BME280;61141;46.204;19.774;2023-10-09T15:46:55;100653.66;;;16.55;61.33
72961;BME280;61141;46.204;19.774;2023-10-09T15:50:03;100665.53;;;16.48;62.67
72961;BME280;61141;46.204;19.774;2023-10-09T15:53:06;100665.94;;;16.43;62.78
72961;BME280;61141;46.204;19.774;2023-10-09T15:56:10;100677.00;;;16.36;62.59
72961;BME280;61141;46.204;19.774;2023-10-09T15:59:14;100668.72;;;16.36;59.54
72961;BME280;61141;46.204;19.774;2023-10-09T16:02:19;100664.00;;;16.33;60.95
72961;BME280;61141;46.204;19.774;2023-10-09T16:05:23;100670.31;;;16.30;60.40
72961;BME280;61141;46.204;19.774;2023-10-09T16:08:28;100669.16;;;16.24;61.41
72961;BME280;61141;46.204;19.774;2023-10-09T16:11:31;100677.09;;;16.15;60.81
72961;BME280;61141;46.204;19.774;2023-10-09T16:14:37;100676.28;;;16.07;60.93
72961;BME280;61141;46.204;19.774;2023-10-09T16:17:40;100667.22;;;16.07;61.91
72961;BME280;61141;46.204;19.774;2023-10-09T16:20:46;100664.09;;;15.98;62.85
72961;BME280;61141;46.204;19.774;2023-10-09T16:23:50;100668.44;;;15.92;62.70
72961;BME280;61141;46.204;19.774;2023-10-09T16:26:53;100664.91;;;15.88;62.54
72961;BME280;61141;46.204;19.774;2023-10-09T16:29:58;100660.56;;;15.83;63.18
72961;BME280;61141;46.204;19.774;2023-10-09T16:33:00;100667.69;;;15.73;63.63